Aviation Digital Data Service (ADDS)

Output produced by METARs form (0012 UTC 17 December 2017)
found at http://www.aviationweather.gov/adds/metars/
 
DFOO 170000Z 00000KT 8000 NSC 23/09 Q1014
TAF DFOO 161700Z 1618/1718 36008KT 8000 NSC 
     TEMPO 1706/1710 4000 DU
       
DFFD 170000Z 00000KT 6000 NSC 24/08 Q1014 NOSIG
TAF DFFD 161700Z 1618/1724 06008KT 4000 DU NSC 
     BECMG 1620/1622 8000 NSW 
     TEMPO 1706/1710 3500 DU